sensor_id;sensor_type;location;lat;lon;timestamp;pressure;altitude;pressure_sealevel;temperature;humidity
9893;BME280;4985;49.092;8.542;2023-07-08T00:00:09;99347.94;;;24.19;41.34
9893;BME280;4985;49.092;8.542;2023-07-08T00:02:36;99345.22;;;24.19;41.36
9893;BME280;4985;49.092;8.542;2023-07-08T00:05:03;99342.53;;;24.19;41.37
9893;BME280;4985;49.092;8.542;2023-07-08T00:07:30;99337.16;;;24.19;41.36
9893;BME280;4985;49.092;8.542;2023-07-08T00:09:56;99337.16;;;24.19;39.84
9893;BME280;4985;49.092;8.542;2023-07-08T00:12:23;99335.53;;;24.18;39.13
9893;BME280;4985;49.092;8.542;2023-07-08T00:14:51;99331.50;;;24.16;38.16
9893;BME280;4985;49.092;8.542;2023-07-08T00:17:17;99336.06;;;24.15;37.85
9893;BME280;4985;49.092;8.542;2023-07-08T00:19:44;99329.06;;;24.14;37.23
9893;BME280;4985;49.092;8.542;2023-07-08T00:22:13;99331.16;;;24.12;37.13
9893;BME280;4985;49.092;8.542;2023-07-08T00:24:41;99330.59;;;24.10;36.77
9893;BME280;4985;49.092;8.542;2023-07-08T00:27:10;99323.28;;;24.05;36.59
9893;BME280;4985;49.092;8.542;2023-07-08T00:29:37;99328.16;;;24.08;36.63
9893;BME280;4985;49.092;8.542;2023-07-08T00:32:11;99324.09;;;24.06;36.39
9893;BME280;4985;49.092;8.542;2023-07-08T00:34:38;99328.09;;;24.03;36.57
9893;BME280;4985;49.092;8.542;2023-07-08T00:37:05;99324.03;;;24.01;36.64
9893;BME280;4985;49.092;8.542;2023-07-08T00:39:32;99325.09;;;24.00;36.59
9893;BME280;4985;49.092;8.542;2023-07-08T00:41:59;99325.34;;;23.98;36.49
9893;BME280;4985;49.092;8.542;2023-07-08T00:44:26;99330.16;;;23.96;36.48
9893;BME280;4985;49.092;8.542;2023-07-08T00:46:57;99338.47;;;23.95;36.17
9893;BME280;4985;49.092;8.542;2023-07-08T00:49:34;99338.72;;;23.93;36.19
9893;BME280;4985;49.092;8.542;2023-07-08T00:52:21;99337.37;;;23.91;36.12
9893;BME280;4985;49.092;8.542;2023-07-08T00:54:50;99339.47;;;23.89;36.03
9893;BME280;4985;49.092;8.542;2023-07-08T00:57:17;99343.22;;;23.88;36.14
9893;BME280;4985;49.092;8.542;2023-07-08T00:59:47;99345.09;;;23.87;36.21
9893;BME280;4985;49.092;8.542;2023-07-08T01:02:18;99348.03;;;23.86;36.09
9893;BME280;4985;49.092;8.542;2023-07-08T01:04:50;99343.72;;;23.85;36.15
9893;BME280;4985;49.092;8.542;2023-07-08T01:07:19;99343.97;;;23.83;36.04
9893;BME280;4985;49.092;8.542;2023-07-08T01:09:51;99352.28;;;23.81;35.85
9893;BME280;4985;49.092;8.542;2023-07-08T01:12:25;99347.97;;;23.80;35.82
9893;BME280;4985;49.092;8.542;2023-07-08T01:14:54;99348.22;;;23.79;36.04
9893;BME280;4985;49.092;8.542;2023-07-08T01:17:22;99342.25;;;23.77;36.13
9893;BME280;4985;49.092;8.542;2023-07-08T01:19:50;99344.13;;;23.76;36.12
9893;BME280;4985;49.092;8.542;2023-07-08T01:22:22;99335.50;;;23.74;36.13
9893;BME280;4985;49.092;8.542;2023-07-08T01:24:48;99328.75;;;23.72;36.05
9893;BME280;4985;49.092;8.542;2023-07-08T01:27:18;99322.56;;;23.71;35.97
9893;BME280;4985;49.092;8.542;2023-07-08T01:29:46;99327.38;;;23.69;35.96
9893;BME280;4985;49.092;8.542;2023-07-08T01:32:14;99328.44;;;23.68;35.86
9893;BME280;4985;49.092;8.542;2023-07-08T01:34:44;99333.81;;;23.68;35.67
9893;BME280;4985;49.092;8.542;2023-07-08T01:37:28;99339.41;;;23.67;35.72
9893;BME280;4985;49.092;8.542;2023-07-08T01:39:56;99336.19;;;23.65;35.78
9893;BME280;4985;49.092;8.542;2023-07-08T01:42:22;99332.13;;;23.62;35.63
9893;BME280;4985;49.092;8.542;2023-07-08T01:44:50;99332.13;;;23.62;35.73
9893;BME280;4985;49.092;8.542;2023-07-08T01:47:19;99332.38;;;23.61;35.63
9893;BME280;4985;49.092;8.542;2023-07-08T01:49:47;99321.28;;;23.57;35.66
9893;BME280;4985;49.092;8.542;2023-07-08T01:52:15;99325.63;;;23.58;35.81
9893;BME280;4985;49.092;8.542;2023-07-08T01:54:44;99323.16;;;23.57;35.82
9893;BME280;4985;49.092;8.542;2023-07-08T01:57:11;99325.03;;;23.56;35.73
9893;BME280;4985;49.092;8.542;2023-07-08T01:59:37;99321.75;;;23.54;35.73
9893;BME280;4985;49.092;8.542;2023-07-08T02:02:04;99316.63;;;23.52;35.78
9893;BME280;4985;49.092;8.542;2023-07-08T02:04:30;99314.75;;;23.53;35.99
9893;BME280;4985;49.092;8.542;2023-07-08T02:06:59;99308.81;;;23.51;35.80
9893;BME280;4985;49.092;8.542;2023-07-08T02:09:26;99320.63;;;23.50;35.95
9893;BME280;4985;49.092;8.542;2023-07-08T02:11:54;99309.56;;;23.46;35.97
9893;BME280;4985;49.092;8.542;2023-07-08T02:14:21;99309.31;;;23.48;35.79
9893;BME280;4985;49.092;8.542;2023-07-08T02:16:48;99310.38;;;23.47;35.71
9893;BME280;4985;49.092;8.542;2023-07-08T02:19:15;99312.25;;;23.46;35.62
9893;BME280;4985;49.092;8.542;2023-07-08T02:21:41;99316.22;;;23.44;35.47
9893;BME280;4985;49.092;8.542;2023-07-08T02:24:08;99317.28;;;23.43;35.53
9893;BME280;4985;49.092;8.542;2023-07-08T02:26:35;99316.72;;;23.41;35.61
9893;BME280;4985;49.092;8.542;2023-07-08T02:29:03;99319.91;;;23.38;35.81
9893;BME280;4985;49.092;8.542;2023-07-08T02:31:29;99334.16;;;23.38;35.91
9893;BME280;4985;49.092;8.542;2023-07-08T02:33:56;99337.09;;;23.37;35.82
9893;BME280;4985;49.092;8.542;2023-07-08T02:36:23;99337.91;;;23.37;36.11
9893;BME280;4985;49.092;8.542;2023-07-08T02:38:49;99343.53;;;23.36;36.12
9893;BME280;4985;49.092;8.542;2023-07-08T02:41:16;99342.72;;;23.35;36.11
9893;BME280;4985;49.092;8.542;2023-07-08T02:43:42;99351.00;;;23.34;35.83
9893;BME280;4985;49.092;8.542;2023-07-08T02:46:11;99341.09;;;23.34;35.49
9893;BME280;4985;49.092;8.542;2023-07-08T02:48:37;99339.47;;;23.33;35.32
9893;BME280;4985;49.092;8.542;2023-07-08T02:51:05;99346.66;;;23.33;35.25
9893;BME280;4985;49.092;8.542;2023-07-08T02:53:34;99348.78;;;23.31;35.23
9893;BME280;4985;49.092;8.542;2023-07-08T02:56:01;99352.53;;;23.30;35.10
9893;BME280;4985;49.092;8.542;2023-07-08T02:58:28;99350.66;;;23.30;34.98
9893;BME280;4985;49.092;8.542;2023-07-08T03:00:55;99345.53;;;23.29;35.03
9893;BME280;4985;49.092;8.542;2023-07-08T03:03:25;99348.47;;;23.27;35.11
9893;BME280;4985;49.092;8.542;2023-07-08T03:05:55;99341.47;;;23.26;35.02
9893;BME280;4985;49.092;8.542;2023-07-08T03:08:21;99342.53;;;23.25;34.99
9893;BME280;4985;49.092;8.542;2023-07-08T03:10:53;99340.09;;;23.23;35.03
9893;BME280;4985;49.092;8.542;2023-07-08T03:13:20;99341.16;;;23.22;34.86
9893;BME280;4985;49.092;8.542;2023-07-08T03:15:46;99343.03;;;23.22;34.92
9893;BME280;4985;49.092;8.542;2023-07-08T03:18:13;99345.94;;;23.20;34.92
9893;BME280;4985;49.092;8.542;2023-07-08T03:20:41;99338.94;;;23.19;34.87
9893;BME280;4985;49.092;8.542;2023-07-08T03:23:10;99343.50;;;23.19;34.94
9893;BME280;4985;49.092;8.542;2023-07-08T03:25:37;99343.75;;;23.17;34.90
9893;BME280;4985;49.092;8.542;2023-07-08T03:28:04;99338.31;;;23.12;35.00
9893;BME280;4985;49.092;8.542;2023-07-08T03:30:31;99350.69;;;23.13;35.13
9893;BME280;4985;49.092;8.542;2023-07-08T03:32:58;99357.09;;;23.12;35.25
9893;BME280;4985;49.092;8.542;2023-07-08T03:35:25;99360.84;;;23.11;35.49
9893;BME280;4985;49.092;8.542;2023-07-08T03:37:53;99357.34;;;23.11;35.36
9893;BME280;4985;49.092;8.542;2023-07-08T03:40:19;99361.06;;;23.10;35.35
9893;BME280;4985;49.092;8.542;2023-07-08T03:42:46;99366.44;;;23.10;35.52
9893;BME280;4985;49.092;8.542;2023-07-08T03:45:13;99363.19;;;23.08;35.65
9893;BME280;4985;49.092;8.542;2023-07-08T03:47:39;99361.56;;;23.07;35.55
9893;BME280;4985;49.092;8.542;2023-07-08T03:50:11;99361.81;;;23.05;35.67
9893;BME280;4985;49.092;8.542;2023-07-08T03:52:44;99361.81;;;23.05;35.74
9893;BME280;4985;49.092;8.542;2023-07-08T03:55:12;99360.19;;;23.04;35.75
9893;BME280;4985;49.092;8.542;2023-07-08T03:57:39;99361.25;;;23.03;35.68
9893;BME280;4985;49.092;8.542;2023-07-08T04:00:07;99354.25;;;23.02;35.67
9893;BME280;4985;49.092;8.542;2023-07-08T04:02:35;99354.25;;;23.02;35.64
9893;BME280;4985;49.092;8.542;2023-07-08T04:05:01;99341.06;;;23.01;35.43
9893;BME280;4985;49.092;8.542;2023-07-08T04:07:28;99351.81;;;23.01;35.41
9893;BME280;4985;49.092;8.542;2023-07-08T04:09:55;99346.44;;;23.01;35.34
9893;BME280;4985;49.092;8.542;2023-07-08T04:12:23;99341.31;;;22.99;35.35
9893;BME280;4985;49.092;8.542;2023-07-08T04:14:49;99327.91;;;22.99;35.47
9893;BME280;4985;49.092;8.542;2023-07-08T04:17:17;99336.97;;;22.98;35.38
9893;BME280;4985;49.092;8.542;2023-07-08T04:19:45;99346.09;;;22.97;35.48
9893;BME280;4985;49.092;8.542;2023-07-08T04:22:11;99340.72;;;22.97;35.60
9893;BME280;4985;49.092;8.542;2023-07-08T04:24:39;99349.84;;;22.96;35.70
9893;BME280;4985;49.092;8.542;2023-07-08T04:27:07;99344.47;;;22.96;35.68
9893;BME280;4985;49.092;8.542;2023-07-08T04:29:36;99349.03;;;22.95;35.74
9893;BME280;4985;49.092;8.542;2023-07-08T04:32:03;99353.56;;;22.95;36.67
9893;BME280;4985;49.092;8.542;2023-07-08T04:34:30;99355.44;;;22.94;37.13
9893;BME280;4985;49.092;8.542;2023-07-08T04:36:57;99348.69;;;22.92;37.56
9893;BME280;4985;49.092;8.542;2023-07-08T04:39:23;99355.38;;;22.89;37.77
9893;BME280;4985;49.092;8.542;2023-07-08T04:41:51;99352.09;;;22.87;37.80
9893;BME280;4985;49.092;8.542;2023-07-08T04:44:17;99345.59;;;22.83;37.99
9893;BME280;4985;49.092;8.542;2023-07-08T04:46:48;99355.63;;;22.88;38.14
9893;BME280;4985;49.092;8.542;2023-07-08T04:49:17;99353.97;;;22.87;38.25
9893;BME280;4985;49.092;8.542;2023-07-08T04:51:43;99355.84;;;22.86;38.31
9893;BME280;4985;49.092;8.542;2023-07-08T04:54:10;99362.00;;;22.87;38.30
9893;BME280;4985;49.092;8.542;2023-07-08T04:56:39;99363.06;;;22.86;38.49
9893;BME280;4985;49.092;8.542;2023-07-08T04:59:08;99377.56;;;22.85;38.78
9893;BME280;4985;49.092;8.542;2023-07-08T05:01:35;99385.59;;;22.85;39.00
9893;BME280;4985;49.092;8.542;2023-07-08T05:04:04;99388.03;;;22.86;38.95
9893;BME280;4985;49.092;8.542;2023-07-08T05:06:32;99388.84;;;22.87;39.03
9893;BME280;4985;49.092;8.542;2023-07-08T05:08:59;99391.31;;;22.88;39.33
9893;BME280;4985;49.092;8.542;2023-07-08T05:11:26;99385.97;;;22.88;39.24
9893;BME280;4985;49.092;8.542;2023-07-08T05:13:52;99390.03;;;22.91;39.31
9893;BME280;4985;49.092;8.542;2023-07-08T05:16:19;99395.38;;;22.91;40.17
9893;BME280;4985;49.092;8.542;2023-07-08T05:18:46;99398.87;;;22.91;40.29
9893;BME280;4985;49.092;8.542;2023-07-08T05:21:14;99391.66;;;22.92;40.10
9893;BME280;4985;49.092;8.542;2023-07-08T05:23:42;99387.09;;;22.92;40.29
9893;BME280;4985;49.092;8.542;2023-07-08T05:26:09;99398.41;;;22.94;40.58
9893;BME280;4985;49.092;8.542;2023-07-08T05:28:36;99396.78;;;22.93;40.59
9893;BME280;4985;49.092;8.542;2023-07-08T05:31:02;99393.28;;;22.93;40.55
9893;BME280;4985;49.092;8.542;2023-07-08T05:33:30;99402.94;;;22.94;40.47
9893;BME280;4985;49.092;8.542;2023-07-08T05:35:57;99406.44;;;22.94;40.37
9893;BME280;4985;49.092;8.542;2023-07-08T05:38:26;99433.06;;;22.96;40.13
9893;BME280;4985;49.092;8.542;2023-07-08T05:40:54;99450.78;;;22.97;39.92
9893;BME280;4985;49.092;8.542;2023-07-08T05:43:22;99464.22;;;22.97;40.43
9893;BME280;4985;49.092;8.542;2023-07-08T05:45:48;99490.25;;;22.97;40.53
9893;BME280;4985;49.092;8.542;2023-07-08T05:48:15;99498.06;;;22.98;40.94
9893;BME280;4985;49.092;8.542;2023-07-08T05:50:42;99485.69;;;22.97;40.81
9893;BME280;4985;49.092;8.542;2023-07-08T05:53:11;99477.63;;;22.97;40.74
9893;BME280;4985;49.092;8.542;2023-07-08T05:55:40;99468.75;;;22.97;40.60
9893;BME280;4985;49.092;8.542;2023-07-08T05:58:07;99479.25;;;22.98;40.52
9893;BME280;4985;49.092;8.542;2023-07-08T06:00:35;99480.91;;;22.99;40.48
9893;BME280;4985;49.092;8.542;2023-07-08T06:03:02;99476.38;;;23.00;40.42
9893;BME280;4985;49.092;8.542;2023-07-08T06:05:28;99479.88;;;23.00;40.37
9893;BME280;4985;49.092;8.542;2023-07-08T06:07:55;99475.31;;;23.01;40.30
9893;BME280;4985;49.092;8.542;2023-07-08T06:10:21;99479.62;;;23.02;40.25
9893;BME280;4985;49.092;8.542;2023-07-08T06:12:50;99475.06;;;23.02;40.22
9893;BME280;4985;49.092;8.542;2023-07-08T06:15:16;99479.38;;;23.03;40.17
9893;BME280;4985;49.092;8.542;2023-07-08T06:17:43;99464.06;;;23.04;40.14
9893;BME280;4985;49.092;8.542;2023-07-08T06:20:10;99468.63;;;23.03;40.13
9893;BME280;4985;49.092;8.542;2023-07-08T06:22:36;99475.63;;;23.04;40.12
9893;BME280;4985;49.092;8.542;2023-07-08T06:25:04;99484.75;;;23.03;40.09
9893;BME280;4985;49.092;8.542;2023-07-08T06:27:30;99489.87;;;23.05;40.11
9893;BME280;4985;49.092;8.542;2023-07-08T06:29:58;99492.56;;;23.05;40.10
9893;BME280;4985;49.092;8.542;2023-07-08T06:32:25;99494.19;;;23.06;40.08
9893;BME280;4985;49.092;8.542;2023-07-08T06:34:51;99493.38;;;23.05;40.08
9893;BME280;4985;49.092;8.542;2023-07-08T06:37:18;99482.63;;;23.05;40.08
9893;BME280;4985;49.092;8.542;2023-07-08T06:39:44;99492.31;;;23.06;40.08
9893;BME280;4985;49.092;8.542;2023-07-08T06:42:11;99487.75;;;23.07;40.02
9893;BME280;4985;49.092;8.542;2023-07-08T06:44:37;99481.31;;;23.08;39.99
9893;BME280;4985;49.092;8.542;2023-07-08T06:47:06;99482.13;;;23.08;40.00
9893;BME280;4985;49.092;8.542;2023-07-08T06:49:32;99504.44;;;23.09;39.98
9893;BME280;4985;49.092;8.542;2023-07-08T06:51:59;99499.06;;;23.09;39.99
9893;BME280;4985;49.092;8.542;2023-07-08T06:54:26;99490.19;;;23.08;39.97
9893;BME280;4985;49.092;8.542;2023-07-08T06:56:53;99488.31;;;23.09;39.97
9893;BME280;4985;49.092;8.542;2023-07-08T06:59:20;99487.28;;;23.10;39.98
9893;BME280;4985;49.092;8.542;2023-07-08T07:01:46;99485.41;;;23.10;39.95
9893;BME280;4985;49.092;8.542;2023-07-08T07:04:14;99479.22;;;23.10;39.96
9893;BME280;4985;49.092;8.542;2023-07-08T07:06:41;99489.94;;;23.10;39.96
9893;BME280;4985;49.092;8.542;2023-07-08T07:09:07;99481.69;;;23.11;39.95
9893;BME280;4985;49.092;8.542;2023-07-08T07:11:34;99475.50;;;23.11;39.97
9893;BME280;4985;49.092;8.542;2023-07-08T07:14:00;99467.19;;;23.12;39.97
9893;BME280;4985;49.092;8.542;2023-07-08T07:16:27;99478.75;;;23.13;39.95
9893;BME280;4985;49.092;8.542;2023-07-08T07:18:54;99476.06;;;23.13;39.95
9893;BME280;4985;49.092;8.542;2023-07-08T07:21:22;99483.06;;;23.14;39.95
9893;BME280;4985;49.092;8.542;2023-07-08T07:23:48;99482.00;;;23.15;39.97
9893;BME280;4985;49.092;8.542;2023-07-08T07:26:15;99484.94;;;23.13;39.96
9893;BME280;4985;49.092;8.542;2023-07-08T07:28:41;99475.00;;;23.14;39.95
9893;BME280;4985;49.092;8.542;2023-07-08T07:31:08;99477.44;;;23.15;39.96
9893;BME280;4985;49.092;8.542;2023-07-08T07:33:36;99472.09;;;23.15;39.98
9893;BME280;4985;49.092;8.542;2023-07-08T07:36:03;99477.44;;;23.15;39.98
9893;BME280;4985;49.092;8.542;2023-07-08T07:38:33;99485.25;;;23.17;39.99
9893;BME280;4985;49.092;8.542;2023-07-08T07:40:59;99487.94;;;23.17;40.00
9893;BME280;4985;49.092;8.542;2023-07-08T07:43:31;99484.44;;;23.16;40.00
9893;BME280;4985;49.092;8.542;2023-07-08T07:45:58;99490.63;;;23.17;40.00
9893;BME280;4985;49.092;8.542;2023-07-08T07:48:24;99491.44;;;23.17;40.01
9893;BME280;4985;49.092;8.542;2023-07-08T07:50:51;99492.25;;;23.18;40.01
9893;BME280;4985;49.092;8.542;2023-07-08T07:53:18;99490.41;;;23.18;40.00
9893;BME280;4985;49.092;8.542;2023-07-08T07:55:46;99493.56;;;23.15;40.02
9893;BME280;4985;49.092;8.542;2023-07-08T07:58:12;99493.88;;;23.19;40.03
9893;BME280;4985;49.092;8.542;2023-07-08T08:00:39;99488.53;;;23.19;40.03
9893;BME280;4985;49.092;8.542;2023-07-08T08:03:06;99495.50;;;23.20;40.04
9893;BME280;4985;49.092;8.542;2023-07-08T08:05:32;99490.16;;;23.20;40.04
9893;BME280;4985;49.092;8.542;2023-07-08T08:07:59;99488.28;;;23.20;40.05
9893;BME280;4985;49.092;8.542;2023-07-08T08:10:25;99491.78;;;23.21;40.06
9893;BME280;4985;49.092;8.542;2023-07-08T08:12:53;99496.34;;;23.20;40.07
9893;BME280;4985;49.092;8.542;2023-07-08T08:15:21;99497.97;;;23.21;40.08
9893;BME280;4985;49.092;8.542;2023-07-08T08:17:48;99497.97;;;23.21;40.09
9893;BME280;4985;49.092;8.542;2023-07-08T08:20:18;99507.69;;;23.22;40.10
9893;BME280;4985;49.092;8.542;2023-07-08T08:22:45;99508.50;;;23.23;40.11
9893;BME280;4985;49.092;8.542;2023-07-08T08:25:12;99510.12;;;23.24;40.11
9893;BME280;4985;49.092;8.542;2023-07-08T08:27:39;99498.56;;;23.23;40.11
9893;BME280;4985;49.092;8.542;2023-07-08T08:30:08;99501.25;;;23.23;40.11
9893;BME280;4985;49.092;8.542;2023-07-08T08:32:34;99495.28;;;23.21;40.12
9893;BME280;4985;49.092;8.542;2023-07-08T08:35:01;99507.19;;;23.26;40.14
9893;BME280;4985;49.092;8.542;2023-07-08T08:37:27;99507.19;;;23.26;40.14
9893;BME280;4985;49.092;8.542;2023-07-08T08:39:54;99504.50;;;23.26;40.16
9893;BME280;4985;49.092;8.542;2023-07-08T08:42:26;99513.13;;;23.28;40.18
9893;BME280;4985;49.092;8.542;2023-07-08T08:44:53;99509.38;;;23.29;40.17
9893;BME280;4985;49.092;8.542;2023-07-08T08:47:30;99514.75;;;23.29;40.18
9893;BME280;4985;49.092;8.542;2023-07-08T08:50:02;99511.00;;;23.30;40.18
9893;BME280;4985;49.092;8.542;2023-07-08T08:52:30;99512.63;;;23.31;40.20
9893;BME280;4985;49.092;8.542;2023-07-08T08:54:57;99516.13;;;23.31;40.20
9893;BME280;4985;49.092;8.542;2023-07-08T08:57:32;99514.25;;;23.32;40.20
9893;BME280;4985;49.092;8.542;2023-07-08T09:00:04;99509.72;;;23.32;40.20
9893;BME280;4985;49.092;8.542;2023-07-08T09:02:37;99507.84;;;23.33;40.22
9893;BME280;4985;49.092;8.542;2023-07-08T09:05:10;99512.19;;;23.34;40.26
9893;BME280;4985;49.092;8.542;2023-07-08T09:07:43;99511.38;;;23.33;40.28
9893;BME280;4985;49.092;8.542;2023-07-08T09:10:19;99510.31;;;23.34;40.30
9893;BME280;4985;49.092;8.542;2023-07-08T09:12:49;99503.06;;;23.35;40.33
9893;BME280;4985;49.092;8.542;2023-07-08T09:15:17;99509.25;;;23.35;40.34
9893;BME280;4985;49.092;8.542;2023-07-08T09:17:45;99510.06;;;23.36;40.38
9893;BME280;4985;49.092;8.542;2023-07-08T09:20:20;99506.31;;;23.37;40.42
9893;BME280;4985;49.092;8.542;2023-07-08T09:22:51;99500.94;;;23.37;40.44
9893;BME280;4985;49.092;8.542;2023-07-08T09:25:24;99504.69;;;23.36;40.48
9893;BME280;4985;49.092;8.542;2023-07-08T09:27:52;99510.63;;;23.38;40.50
9893;BME280;4985;49.092;8.542;2023-07-08T09:30:21;99513.31;;;23.38;40.52
9893;BME280;4985;49.092;8.542;2023-07-08T09:32:49;99516.81;;;23.38;40.54
9893;BME280;4985;49.092;8.542;2023-07-08T09:35:25;99511.19;;;23.40;40.58
9893;BME280;4985;49.092;8.542;2023-07-08T09:37:52;99505.81;;;23.40;40.62
9893;BME280;4985;49.092;8.542;2023-07-08T09:40:20;99504.78;;;23.41;40.63
9893;BME280;4985;49.092;8.542;2023-07-08T09:42:50;99512.81;;;23.41;40.66
9893;BME280;4985;49.092;8.542;2023-07-08T09:45:19;99496.38;;;23.37;40.68
9893;BME280;4985;49.092;8.542;2023-07-08T09:47:51;99509.09;;;23.42;40.72
9893;BME280;4985;49.092;8.542;2023-07-08T09:50:21;99496.47;;;23.42;40.74
9893;BME280;4985;49.092;8.542;2023-07-08T09:52:49;99499.97;;;23.43;40.76
9893;BME280;4985;49.092;8.542;2023-07-08T09:55:17;99491.34;;;23.41;40.79
9893;BME280;4985;49.092;8.542;2023-07-08T09:57:45;99491.34;;;23.41;40.81
9893;BME280;4985;49.092;8.542;2023-07-08T10:00:15;99492.97;;;23.42;40.82
9893;BME280;4985;49.092;8.542;2023-07-08T10:02:44;99505.69;;;23.46;40.81
9893;BME280;4985;49.092;8.542;2023-07-08T10:05:19;99511.88;;;23.47;40.82
9893;BME280;4985;49.092;8.542;2023-07-08T10:07:47;99509.19;;;23.47;40.85
9893;BME280;4985;49.092;8.542;2023-07-08T10:10:16;99500.06;;;23.48;40.87
9893;BME280;4985;49.092;8.542;2023-07-08T10:12:52;99497.37;;;23.48;40.90
9893;BME280;4985;49.092;8.542;2023-07-08T10:15:24;99501.69;;;23.49;40.91
9893;BME280;4985;49.092;8.542;2023-07-08T10:17:54;99505.19;;;23.49;40.93
9893;BME280;4985;49.092;8.542;2023-07-08T10:20:22;99492.56;;;23.50;40.96
9893;BME280;4985;49.092;8.542;2023-07-08T10:22:57;99496.06;;;23.50;40.97
9893;BME280;4985;49.092;8.542;2023-07-08T10:25:32;99491.50;;;23.51;40.99
9893;BME280;4985;49.092;8.542;2023-07-08T10:28:13;99493.13;;;23.52;41.00
9893;BME280;4985;49.092;8.542;2023-07-08T10:30:53;99491.28;;;23.52;41.04
9893;BME280;4985;49.092;8.542;2023-07-08T10:33:35;99493.13;;;23.52;41.05
9893;BME280;4985;49.092;8.542;2023-07-08T10:36:19;99492.91;;;23.53;41.06
9893;BME280;4985;49.092;8.542;2023-07-08T10:39:10;99485.66;;;23.54;41.09
9893;BME280;4985;49.092;8.542;2023-07-08T10:41:49;99477.34;;;23.56;41.10
9893;BME280;4985;49.092;8.542;2023-07-08T10:44:25;99488.94;;;23.56;41.12
9893;BME280;4985;49.092;8.542;2023-07-08T10:47:00;99483.56;;;23.56;41.13
9893;BME280;4985;49.092;8.542;2023-07-08T10:49:41;99490.91;;;23.61;41.14
9893;BME280;4985;49.092;8.542;2023-07-08T10:52:40;99485.53;;;23.61;41.14
9893;BME280;4985;49.092;8.542;2023-07-08T10:55:17;99490.91;;;23.61;41.17
9893;BME280;4985;49.092;8.542;2023-07-08T10:58:07;99494.41;;;23.61;41.20
9893;BME280;4985;49.092;8.542;2023-07-08T11:00:43;99495.22;;;23.62;41.22
9893;BME280;4985;49.092;8.542;2023-07-08T11:03:38;99493.34;;;23.62;41.24
9893;BME280;4985;49.092;8.542;2023-07-08T11:06:10;99495.78;;;23.64;41.26
9893;BME280;4985;49.092;8.542;2023-07-08T11:08:41;99487.16;;;23.62;41.27
9893;BME280;4985;49.092;8.542;2023-07-08T11:11:15;99492.03;;;23.65;41.29
9893;BME280;4985;49.092;8.542;2023-07-08T11:13:48;99484.22;;;23.63;41.29
9893;BME280;4985;49.092;8.542;2023-07-08T11:16:22;99494.47;;;23.66;41.30
9893;BME280;4985;49.092;8.542;2023-07-08T11:18:53;99488.06;;;23.67;41.32
9893;BME280;4985;49.092;8.542;2023-07-08T11:21:24;99494.25;;;23.68;41.33
9893;BME280;4985;49.092;8.542;2023-07-08T11:23:57;99494.03;;;23.69;41.34
9893;BME280;4985;49.092;8.542;2023-07-08T11:26:30;99489.47;;;23.70;41.33
9893;BME280;4985;49.092;8.542;2023-07-08T11:29:00;99483.72;;;23.66;41.36
9893;BME280;4985;49.092;8.542;2023-07-08T11:31:29;99486.53;;;23.71;41.36
9893;BME280;4985;49.092;8.542;2023-07-08T11:33:57;99479.03;;;23.73;41.37
9893;BME280;4985;49.092;8.542;2023-07-08T11:36:25;99486.03;;;23.74;41.37
9893;BME280;4985;49.092;8.542;2023-07-08T11:38:55;99483.34;;;23.74;41.38
9893;BME280;4985;49.092;8.542;2023-07-08T11:41:25;99480.09;;;23.72;41.39
9893;BME280;4985;49.092;8.542;2023-07-08T11:43:57;99476.91;;;23.75;41.43
9893;BME280;4985;49.092;8.542;2023-07-08T11:46:26;99472.34;;;23.76;41.45
9893;BME280;4985;49.092;8.542;2023-07-08T11:48:55;99480.16;;;23.77;41.47
9893;BME280;4985;49.092;8.542;2023-07-08T11:51:24;99466.72;;;23.77;41.48
9893;BME280;4985;49.092;8.542;2023-07-08T11:54:02;99461.94;;;23.79;41.50
9893;BME280;4985;49.092;8.542;2023-07-08T11:56:48;99458.19;;;23.80;41.52
9893;BME280;4985;49.092;8.542;2023-07-08T11:59:17;99457.38;;;23.80;41.54
9893;BME280;4985;49.092;8.542;2023-07-08T12:01:52;99449.88;;;23.82;41.55
9893;BME280;4985;49.092;8.542;2023-07-08T12:04:28;99443.44;;;23.83;41.57
9893;BME280;4985;49.092;8.542;2023-07-08T12:07:14;99453.13;;;23.84;41.58
9893;BME280;4985;49.092;8.542;2023-07-08T12:09:48;99452.06;;;23.85;41.61
9893;BME280;4985;49.092;8.542;2023-07-08T12:12:21;99445.88;;;23.85;41.65
9893;BME280;4985;49.092;8.542;2023-07-08T12:14:50;99444.81;;;23.86;41.68
9893;BME280;4985;49.092;8.542;2023-07-08T12:17:17;99446.44;;;23.87;41.70
9893;BME280;4985;49.092;8.542;2023-07-08T12:19:44;99452.37;;;23.89;41.72
9893;BME280;4985;49.092;8.542;2023-07-08T12:22:13;99455.88;;;23.89;41.74
9893;BME280;4985;49.092;8.542;2023-07-08T12:24:40;99452.97;;;23.91;41.75
9893;BME280;4985;49.092;8.542;2023-07-08T12:27:10;99454.59;;;23.92;41.79
9893;BME280;4985;49.092;8.542;2023-07-08T12:29:37;99452.47;;;23.94;41.78
9893;BME280;4985;49.092;8.542;2023-07-08T12:32:04;99445.22;;;23.94;41.81
9893;BME280;4985;49.092;8.542;2023-07-08T12:34:32;99438.78;;;23.95;41.83
9893;BME280;4985;49.092;8.542;2023-07-08T12:36:59;99443.91;;;23.97;41.83
9893;BME280;4985;49.092;8.542;2023-07-08T12:39:26;99445.53;;;23.98;41.88
9893;BME280;4985;49.092;8.542;2023-07-08T12:41:52;99440.97;;;23.98;41.88
9893;BME280;4985;49.092;8.542;2023-07-08T12:44:22;99448.78;;;24.00;41.89
9893;BME280;4985;49.092;8.542;2023-07-08T12:46:52;99445.03;;;24.01;41.93
9893;BME280;4985;49.092;8.542;2023-07-08T12:49:19;99446.69;;;24.02;41.94
9893;BME280;4985;49.092;8.542;2023-07-08T12:51:47;99442.94;;;24.03;41.96
9893;BME280;4985;49.092;8.542;2023-07-08T12:54:14;99434.50;;;23.99;41.98
9893;BME280;4985;49.092;8.542;2023-07-08T12:56:44;99451.56;;;24.05;42.01
9893;BME280;4985;49.092;8.542;2023-07-08T12:59:14;99449.44;;;24.07;42.03
9893;BME280;4985;49.092;8.542;2023-07-08T13:01:45;99451.06;;;24.08;42.04
9893;BME280;4985;49.092;8.542;2023-07-08T13:04:14;99451.87;;;24.08;42.05
9893;BME280;4985;49.092;8.542;2023-07-08T13:06:43;99446.22;;;24.10;42.06
9893;BME280;4985;49.092;8.542;2023-07-08T13:09:23;99448.66;;;24.11;42.09
9893;BME280;4985;49.092;8.542;2023-07-08T13:11:51;99439.56;;;24.13;42.10
9893;BME280;4985;49.092;8.542;2023-07-08T13:14:22;99437.69;;;24.13;42.12
9893;BME280;4985;49.092;8.542;2023-07-08T13:16:50;99440.94;;;24.15;42.16
9893;BME280;4985;49.092;8.542;2023-07-08T13:19:17;99435.31;;;24.17;42.15
9893;BME280;4985;49.092;8.542;2023-07-08T13:21:45;99441.50;;;24.17;42.16
9893;BME280;4985;49.092;8.542;2023-07-08T13:24:13;99437.75;;;24.18;42.16
9893;BME280;4985;49.092;8.542;2023-07-08T13:26:40;99429.44;;;24.20;42.18
9893;BME280;4985;49.092;8.542;2023-07-08T13:29:13;99435.13;;;24.23;42.19
9893;BME280;4985;49.092;8.542;2023-07-08T13:31:44;99432.44;;;24.23;42.22